Time;durP1;ratioP1;P1;durP2;ratioP2;P2;SDS_P1;SDS_P2;PMS_P1;PMS_P2;Temp;Humidity;BMP_temperature;BMP_pressure;BME280_temperature;BME280_humidity;BME280_pressure;Samples;Min_cycle;Max_cycle;Signal;HPM_P1;HPM_P2
2021/01/15 00:00:07;;;;;;;;;;;2.00;99.90;;;;;;4864514;29;19939;-78
2021/01/15 00:02:35;;;;;;;;;;;2.10;99.90;;;;;;4878572;29;20361;-78
2021/01/15 00:05:05;;;;;;;;;;;2.10;99.90;;;;;;4881011;29;19924;-79
2021/01/15 00:07:32;;;;;;;;;;;2.00;99.90;;;;;;4864687;29;20343;-80
2021/01/15 00:09:59;;;;;;;;;;;2.10;99.90;;;;;;4864521;29;19924;-78
2021/01/15 00:12:30;;;;;;;;;;;2.00;99.90;;;;;;4849683;29;20354;-77
2021/01/15 00:15:02;;;;;;;;;;;2.00;99.90;;;;;;4864590;29;19934;-79
2021/01/15 00:17:52;;;;;;;;;;;1.90;99.90;;;;;;4882251;29;19924;-80
2021/01/15 00:20:20;;;;;;;;;;;1.90;99.90;;;;;;4864350;29;20239;-78
2021/01/15 00:22:50;;;;;;;;;;;2.00;99.90;;;;;;4865269;29;19928;-78
2021/01/15 00:25:17;;;;;;;;;;;2.00;99.90;;;;;;4854044;29;19935;-77
2021/01/15 00:28:00;;;;;;;;;;;2.00;99.90;;;;;;4870272;29;20297;-80
2021/01/15 00:30:28;;;;;;;;;;;1.90;99.90;;;;;;4853505;29;20373;-79
2021/01/15 00:32:57;;;;;;;;;;;1.90;99.90;;;;;;4906217;29;19939;-78
2021/01/15 00:35:26;;;;;;;;;;;2.00;99.90;;;;;;4879541;29;19928;-79
2021/01/15 00:37:53;;;;;;;;;;;2.00;99.90;;;;;;4907212;29;19932;-78
2021/01/15 00:40:21;;;;;;;;;;;2.00;99.90;;;;;;4871483;29;19924;-79
2021/01/15 00:42:49;;;;;;;;;;;2.00;99.90;;;;;;4851984;29;19928;-77
2021/01/15 00:45:17;;;;;;;;;;;2.00;99.90;;;;;;4864888;29;19935;-77
2021/01/15 00:47:45;;;;;;;;;;;2.00;99.90;;;;;;4865664;29;19924;-80
2021/01/15 00:50:14;;;;;;;;;;;2.00;99.90;;;;;;4884107;29;19924;-78
2021/01/15 00:52:42;;;;;;;;;;;2.00;99.90;;;;;;4860934;29;19924;-76
2021/01/15 00:55:11;;;;;;;;;;;2.10;99.90;;;;;;4863911;29;20358;-79
2021/01/15 00:57:38;;;;;;;;;;;2.00;99.90;;;;;;4857496;29;20273;-75
2021/01/15 01:00:07;;;;;;;;;;;2.00;99.90;;;;;;4858934;29;19924;-76
2021/01/15 01:02:58;;;;;;;;;;;2.00;99.90;;;;;;4869102;29;19923;-77
2021/01/15 01:05:25;;;;;;;;;;;2.00;99.90;;;;;;4859045;29;19924;-77
2021/01/15 01:07:52;;;;;;;;;;;1.90;99.90;;;;;;4883374;29;19930;-78
2021/01/15 01:10:19;;;;;;;;;;;2.00;99.90;;;;;;4862914;29;19924;-77
2021/01/15 01:12:51;;;;;;;;;;;2.00;99.90;;;;;;4869676;29;19935;-76
2021/01/15 01:15:20;;;;;;;;;;;2.00;99.90;;;;;;4875148;29;19934;-77
2021/01/15 01:17:47;;;;;;;;;;;2.00;99.90;;;;;;4877500;29;19924;-82
2021/01/15 01:20:18;;;;;;;;;;;2.00;99.90;;;;;;4865192;29;19924;-78
2021/01/15 01:22:49;;;;;;;;;;;1.90;99.90;;;;;;4871163;29;19924;-78
2021/01/15 01:25:19;;;;;;;;;;;1.90;99.90;;;;;;4858225;29;19924;-78
2021/01/15 01:27:46;;;;;;;;;;;1.80;99.90;;;;;;4858270;29;19935;-77
2021/01/15 01:30:17;;;;;;;;;;;1.90;99.90;;;;;;4847239;29;19927;-79
2021/01/15 01:32:46;;;;;;;;;;;1.90;99.90;;;;;;4836797;29;20367;-77
2021/01/15 01:35:18;;;;;;;;;;;1.90;99.90;;;;;;4858787;29;19924;-78
2021/01/15 01:37:46;;;;;;;;;;;1.90;99.90;;;;;;4858962;29;19920;-80
2021/01/15 01:40:15;;;;;;;;;;;1.90;99.90;;;;;;4884971;29;19928;-78
2021/01/15 01:42:43;;;;;;;;;;;1.90;99.90;;;;;;4871450;29;19908;-78
2021/01/15 01:45:19;;;;;;;;;;;1.90;99.90;;;;;;4848007;29;19924;-78
2021/01/15 01:47:52;;;;;;;;;;;1.90;99.90;;;;;;4846781;29;19924;-78
2021/01/15 01:50:24;;;;;;;;;;;1.90;99.90;;;;;;4866596;29;19924;-78
2021/01/15 01:52:51;;;;;;;;;;;1.90;99.90;;;;;;4860515;29;19954;-78
2021/01/15 01:55:20;;;;;;;;;;;1.80;99.90;;;;;;4869382;29;19924;-78
2021/01/15 01:57:47;;;;;;;;;;;1.90;99.90;;;;;;4870401;29;19923;-80
2021/01/15 02:00:14;;;;;;;;;;;1.90;99.90;;;;;;4875346;29;19935;-78
2021/01/15 02:02:42;;;;;;;;;;;1.90;99.90;;;;;;4880925;29;19924;-77
2021/01/15 02:05:11;;;;;;;;;;;1.90;99.90;;;;;;4900036;29;19924;-79
2021/01/15 02:07:42;;;;;;;;;;;1.90;99.90;;;;;;4884080;29;19924;-80
2021/01/15 02:10:13;;;;;;;;;;;1.90;99.90;;;;;;4871663;29;19940;-78
2021/01/15 02:12:47;;;;;;;;;;;1.90;99.90;;;;;;4864863;29;19935;-78
2021/01/15 02:15:18;;;;;;;;;;;2.00;99.90;;;;;;4862473;29;20389;-79
2021/01/15 02:17:50;;;;;;;;;;;1.90;99.90;;;;;;4867946;29;19951;-78
2021/01/15 02:20:34;;;;;;;;;;;1.90;99.90;;;;;;4860832;29;19923;-77
2021/01/15 02:23:13;;;;;;;;;;;1.90;99.90;;;;;;4855242;29;19935;-81
2021/01/15 02:26:08;;;;;;;;;;;1.90;99.90;;;;;;4871484;29;19924;-79
2021/01/15 02:28:46;;;;;;;;;;;1.90;99.90;;;;;;4810396;29;20280;-80
2021/01/15 02:31:36;;;;;;;;;;;1.90;99.90;;;;;;4887923;29;19931;-78
2021/01/15 02:34:18;;;;;;;;;;;2.00;99.90;;;;;;4849721;29;19936;-76
2021/01/15 02:36:52;;;;;;;;;;;2.00;99.90;;;;;;4874889;29;20401;-79
2021/01/15 02:39:28;;;;;;;;;;;2.00;99.90;;;;;;4862113;29;19935;-78
2021/01/15 02:41:58;;;;;;;;;;;2.00;99.90;;;;;;4849191;29;20278;-78
2021/01/15 02:44:32;;;;;;;;;;;2.00;99.90;;;;;;4842350;29;19924;-79
2021/01/15 02:47:00;;;;;;;;;;;2.00;99.90;;;;;;4868090;29;19935;-81
2021/01/15 02:49:30;;;;;;;;;;;2.10;99.90;;;;;;4856036;29;19944;-80
2021/01/15 02:52:00;;;;;;;;;;;2.00;99.90;;;;;;4865540;29;19928;-79
2021/01/15 02:54:29;;;;;;;;;;;2.00;99.90;;;;;;4866049;29;19946;-79
2021/01/15 02:56:56;;;;;;;;;;;2.00;99.90;;;;;;4866379;29;19924;-78
2021/01/15 02:59:23;;;;;;;;;;;2.00;99.90;;;;;;4863500;29;19939;-78
2021/01/15 03:01:55;;;;;;;;;;;2.10;99.90;;;;;;4883644;29;19935;-77
2021/01/15 03:04:32;;;;;;;;;;;2.10;99.90;;;;;;4869759;29;19931;-77
2021/01/15 03:07:01;;;;;;;;;;;2.10;99.90;;;;;;4858376;29;19924;-78
2021/01/15 03:09:32;;;;;;;;;;;2.00;99.90;;;;;;4878460;29;19924;-77
2021/01/15 03:12:00;;;;;;;;;;;2.00;99.90;;;;;;4836331;29;19924;-81
2021/01/15 03:14:30;;;;;;;;;;;2.00;99.90;;;;;;4854526;29;19935;-78
2021/01/15 03:16:57;;;;;;;;;;;2.00;99.90;;;;;;4864753;29;19932;-79
2021/01/15 03:19:25;;;;;;;;;;;2.00;99.90;;;;;;4865968;29;20304;-78
2021/01/15 03:21:53;;;;;;;;;;;2.00;99.90;;;;;;4860160;29;19939;-77
2021/01/15 03:24:21;;;;;;;;;;;2.00;99.90;;;;;;4875179;29;19935;-78
2021/01/15 03:26:49;;;;;;;;;;;2.00;99.90;;;;;;4854862;29;19924;-81
2021/01/15 03:29:19;;;;;;;;;;;2.00;99.90;;;;;;4861398;29;19924;-83
2021/01/15 03:31:46;;;;;;;;;;;2.00;99.90;;;;;;4850883;29;20358;-77
2021/01/15 03:34:15;;;;;;;;;;;2.00;99.90;;;;;;4840169;29;19935;-79
2021/01/15 03:36:42;;;;;;;;;;;2.00;99.90;;;;;;4864857;29;19939;-80
2021/01/15 03:39:11;;;;;;;;;;;2.00;99.90;;;;;;4851015;29;19931;-78
2021/01/15 03:44:22;;;;;;;;;;;2.00;99.90;;;;;;4872555;29;20362;-78
2021/01/15 03:46:53;;;;;;;;;;;2.00;99.90;;;;;;4843677;29;19924;-78
2021/01/15 03:49:23;;;;;;;;;;;2.00;99.90;;;;;;4862556;29;20343;-78
2021/01/15 03:51:50;;;;;;;;;;;2.00;99.90;;;;;;4856640;29;20256;-79
2021/01/15 03:54:20;;;;;;;;;;;2.10;99.90;;;;;;4856527;29;20381;-79
2021/01/15 03:56:54;;;;;;;;;;;2.10;99.90;;;;;;4863431;29;19923;-80
2021/01/15 03:59:24;;;;;;;;;;;2.10;99.90;;;;;;4849489;29;19928;-78
2021/01/15 04:01:52;;;;;;;;;;;2.00;99.90;;;;;;4864903;29;19924;-78
2021/01/15 04:04:20;;;;;;;;;;;2.00;99.90;;;;;;4860642;29;19938;-77
2021/01/15 04:06:48;;;;;;;;;;;2.10;99.90;;;;;;4846734;29;19931;-76
2021/01/15 04:09:18;;;;;;;;;;;2.10;99.90;;;;;;4864339;29;19935;-76
2021/01/15 04:11:45;;;;;;;;;;;2.10;99.90;;;;;;4864438;29;19924;-76
2021/01/15 04:14:13;;;;;;;;;;;2.10;99.90;;;;;;4852978;29;19924;-80
2021/01/15 04:16:40;;;;;;;;;;;2.10;99.90;;;;;;4885027;29;19924;-79
2021/01/15 04:19:07;;;;;;;;;;;2.10;99.90;;;;;;4874463;29;19924;-81
2021/01/15 04:21:44;;;;;;;;;;;2.10;99.90;;;;;;4859111;29;19924;-78
2021/01/15 04:24:11;;;;;;;;;;;2.10;99.90;;;;;;4849314;29;19935;-79
2021/01/15 04:26:41;;;;;;;;;;;2.20;99.90;;;;;;4881956;29;19924;-78
2021/01/15 04:29:23;;;;;;;;;;;2.20;99.90;;;;;;4849855;29;19934;-78
2021/01/15 04:31:51;;;;;;;;;;;2.20;99.90;;;;;;4838404;29;20270;-78
2021/01/15 04:34:21;;;;;;;;;;;2.10;99.90;;;;;;4863460;29;20389;-78
2021/01/15 04:36:48;;;;;;;;;;;2.10;99.90;;;;;;4878523;29;19931;-77
2021/01/15 04:39:15;;;;;;;;;;;2.20;99.90;;;;;;4849470;29;19935;-78
2021/01/15 04:41:43;;;;;;;;;;;2.20;99.90;;;;;;4863746;29;20369;-78
2021/01/15 04:44:14;;;;;;;;;;;2.10;99.90;;;;;;4863925;29;19935;-77
2021/01/15 04:46:42;;;;;;;;;;;2.10;99.90;;;;;;4864714;29;20353;-76
2021/01/15 04:49:12;;;;;;;;;;;2.10;99.90;;;;;;4864120;29;19924;-76
2021/01/15 04:51:41;;;;;;;;;;;2.10;99.90;;;;;;4855188;29;20318;-79
2021/01/15 04:54:11;;;;;;;;;;;2.10;99.90;;;;;;4874402;29;19924;-77
2021/01/15 04:56:39;;;;;;;;;;;2.10;99.90;;;;;;4867581;29;19924;-77
2021/01/15 04:59:07;;;;;;;;;;;2.10;99.90;;;;;;4843656;29;19924;-77
2021/01/15 05:01:38;;;;;;;;;;;2.10;99.90;;;;;;4862367;29;19935;-78
2021/01/15 05:04:06;;;;;;;;;;;2.10;99.90;;;;;;4857802;29;19935;-78
2021/01/15 05:06:42;;;;;;;;;;;2.10;99.90;;;;;;4854607;29;19928;-78
2021/01/15 05:09:11;;;;;;;;;;;2.10;99.90;;;;;;4836261;29;19935;-78
2021/01/15 05:11:46;;;;;;;;;;;2.10;99.90;;;;;;4846814;29;19924;-78
2021/01/15 05:14:14;;;;;;;;;;;2.20;99.90;;;;;;4827038;29;19924;-78
2021/01/15 05:16:43;;;;;;;;;;;2.30;99.90;;;;;;4862723;29;19935;-78
2021/01/15 05:19:10;;;;;;;;;;;2.20;99.90;;;;;;4861663;29;19934;-78
2021/01/15 05:21:41;;;;;;;;;;;2.20;99.90;;;;;;4865158;29;19935;-78
2021/01/15 05:24:12;;;;;;;;;;;2.10;99.90;;;;;;4882778;29;19924;-80
2021/01/15 05:26:45;;;;;;;;;;;2.20;99.90;;;;;;4864150;29;19925;-77
2021/01/15 05:29:12;;;;;;;;;;;2.10;99.90;;;;;;4892106;29;19934;-79
2021/01/15 05:31:49;;;;;;;;;;;2.20;99.90;;;;;;4871867;29;19924;-79
2021/01/15 05:34:18;;;;;;;;;;;2.20;99.90;;;;;;4859889;29;19947;-79
2021/01/15 05:36:57;;;;;;;;;;;2.20;99.90;;;;;;4874195;29;19924;-78
2021/01/15 05:39:26;;;;;;;;;;;2.20;99.90;;;;;;4859599;29;20546;-79
2021/01/15 05:41:58;;;;;;;;;;;2.10;99.90;;;;;;4849131;29;19924;-77
2021/01/15 05:44:28;;;;;;;;;;;2.10;99.90;;;;;;4861015;29;19925;-78
2021/01/15 05:46:58;;;;;;;;;;;2.20;99.90;;;;;;4849475;29;19935;-78
2021/01/15 05:49:26;;;;;;;;;;;2.30;99.90;;;;;;4865756;29;19928;-78
2021/01/15 05:51:54;;;;;;;;;;;2.30;99.90;;;;;;4834476;29;19931;-80
2021/01/15 05:54:29;;;;;;;;;;;2.30;99.90;;;;;;4847470;29;19932;-82
2021/01/15 05:57:04;;;;;;;;;;;2.20;99.90;;;;;;4881236;29;19935;-78
2021/01/15 05:59:37;;;;;;;;;;;2.20;99.90;;;;;;4839628;29;19939;-78
2021/01/15 06:02:06;;;;;;;;;;;2.20;99.90;;;;;;4872809;29;19928;-78
2021/01/15 06:04:36;;;;;;;;;;;2.20;99.90;;;;;;4853189;29;19924;-81
2021/01/15 06:07:27;;;;;;;;;;;2.30;99.90;;;;;;4861950;29;19924;-78
2021/01/15 06:10:00;;;;;;;;;;;2.20;99.90;;;;;;4868557;29;19935;-81
2021/01/15 06:12:41;;;;;;;;;;;2.20;99.90;;;;;;4839420;29;20303;-80
2021/01/15 06:15:10;;;;;;;;;;;2.20;99.90;;;;;;4870549;29;19924;-78
2021/01/15 06:17:39;;;;;;;;;;;2.30;99.90;;;;;;4866781;29;19931;-79
2021/01/15 06:20:18;;;;;;;;;;;2.20;99.90;;;;;;4864962;29;19923;-79
2021/01/15 06:22:54;;;;;;;;;;;2.20;99.90;;;;;;4854641;29;19924;-78
2021/01/15 06:25:25;;;;;;;;;;;2.10;99.90;;;;;;4853640;29;20034;-80
2021/01/15 06:27:55;;;;;;;;;;;2.20;99.90;;;;;;4868665;29;20289;-78
2021/01/15 06:30:28;;;;;;;;;;;2.20;99.90;;;;;;4868836;29;19928;-79
2021/01/15 06:33:09;;;;;;;;;;;2.20;99.90;;;;;;4855942;29;19932;-80
2021/01/15 06:35:38;;;;;;;;;;;2.20;99.90;;;;;;4867264;29;20345;-80
2021/01/15 06:38:10;;;;;;;;;;;2.20;99.90;;;;;;4876191;29;19924;-78
2021/01/15 06:40:40;;;;;;;;;;;2.10;99.90;;;;;;4876405;29;19925;-81
2021/01/15 06:43:08;;;;;;;;;;;2.10;99.90;;;;;;4879316;29;19931;-78
2021/01/15 06:45:40;;;;;;;;;;;2.10;99.90;;;;;;4855312;29;19924;-78
2021/01/15 06:48:09;;;;;;;;;;;2.00;99.90;;;;;;4845384;29;19924;-79
2021/01/15 06:50:39;;;;;;;;;;;2.00;99.90;;;;;;4852996;29;19924;-79
2021/01/15 06:53:19;;;;;;;;;;;2.00;99.90;;;;;;4866953;29;19924;-80
2021/01/15 06:55:49;;;;;;;;;;;2.10;99.90;;;;;;4866663;29;20354;-79
2021/01/15 06:58:23;;;;;;;;;;;2.10;99.90;;;;;;4873299;29;19932;-79
2021/01/15 07:01:24;;;;;;;;;;;2.00;99.90;;;;;;4847893;29;19934;-80
2021/01/15 07:04:05;;;;;;;;;;;2.00;99.90;;;;;;4868858;29;19924;-78
2021/01/15 07:06:35;;;;;;;;;;;2.00;99.90;;;;;;4864823;29;19928;-78
2021/01/15 07:09:07;;;;;;;;;;;2.10;99.90;;;;;;4877017;29;19924;-80
2021/01/15 07:11:38;;;;;;;;;;;2.10;99.90;;;;;;4881763;29;19936;-80
2021/01/15 07:14:08;;;;;;;;;;;2.00;99.90;;;;;;4864275;29;19923;-80
2021/01/15 07:16:37;;;;;;;;;;;2.00;99.90;;;;;;4893744;29;19928;-79
2021/01/15 07:19:14;;;;;;;;;;;2.00;99.90;;;;;;4890574;29;19923;-79
2021/01/15 07:21:58;;;;;;;;;;;2.00;99.90;;;;;;4865316;29;20282;-79
2021/01/15 07:24:29;;;;;;;;;;;2.00;99.90;;;;;;4862294;29;20470;-79
2021/01/15 07:27:01;;;;;;;;;;;2.00;99.90;;;;;;4864639;29;19932;-79
2021/01/15 07:29:36;;;;;;;;;;;2.00;99.90;;;;;;4865567;29;19924;-78
2021/01/15 07:32:09;;;;;;;;;;;2.00;99.90;;;;;;4853970;29;19924;-78
2021/01/15 07:34:44;;;;;;;;;;;2.10;99.90;;;;;;4863944;29;19952;-78
2021/01/15 07:37:22;;;;;;;;;;;2.20;99.90;;;;;;4864087;29;19935;-78
2021/01/15 07:40:05;;;;;;;;;;;2.20;99.90;;;;;;4864512;29;19935;-79
2021/01/15 07:42:43;;;;;;;;;;;2.30;99.90;;;;;;4879102;29;19924;-80
2021/01/15 07:45:42;;;;;;;;;;;2.50;99.90;;;;;;4872660;29;19934;-79
2021/01/15 07:48:11;;;;;;;;;;;2.50;99.90;;;;;;4877625;29;19908;-79
2021/01/15 07:50:44;;;;;;;;;;;2.60;99.90;;;;;;4847621;29;20256;-79
2021/01/15 07:53:16;;;;;;;;;;;2.60;99.90;;;;;;4858184;29;19935;-78
2021/01/15 07:55:49;;;;;;;;;;;2.60;99.90;;;;;;4880798;29;19923;-78
2021/01/15 07:58:24;;;;;;;;;;;2.50;99.90;;;;;;4869654;29;19920;-77
2021/01/15 08:01:04;;;;;;;;;;;2.50;99.90;;;;;;4859285;29;19928;-78
2021/01/15 08:03:33;;;;;;;;;;;2.50;99.90;;;;;;4862338;29;19932;-78
2021/01/15 08:06:02;;;;;;;;;;;2.40;99.90;;;;;;4846379;29;19939;-77
2021/01/15 08:08:32;;;;;;;;;;;2.40;99.90;;;;;;4877154;29;19927;-79
2021/01/15 08:11:12;;;;;;;;;;;2.40;99.90;;;;;;4877473;29;19924;-79
2021/01/15 08:13:50;;;;;;;;;;;2.30;99.90;;;;;;4879268;29;19924;-79
2021/01/15 08:16:44;;;;;;;;;;;2.30;99.90;;;;;;4857745;29;19940;-80
2021/01/15 08:19:14;;;;;;;;;;;2.30;99.90;;;;;;4856261;29;19924;-79
2021/01/15 08:21:42;;;;;;;;;;;2.40;99.90;;;;;;4868032;29;19923;-79
2021/01/15 08:24:18;;;;;;;;;;;2.40;99.90;;;;;;4871924;29;19924;-80
2021/01/15 08:26:50;;;;;;;;;;;2.40;99.90;;;;;;4870519;29;19939;-78
2021/01/15 08:29:27;;;;;;;;;;;2.40;99.90;;;;;;4873212;29;20354;-78
2021/01/15 08:31:59;;;;;;;;;;;2.40;99.90;;;;;;4855601;29;19924;-81
2021/01/15 08:34:33;;;;;;;;;;;2.40;99.90;;;;;;4853544;29;19935;-85
2021/01/15 08:37:06;;;;;;;;;;;2.40;99.90;;;;;;4868331;29;19936;-80
2021/01/15 08:39:43;;;;;;;;;;;2.40;99.90;;;;;;4862495;29;19923;-81
2021/01/15 08:42:18;;;;;;;;;;;2.40;99.90;;;;;;4849782;29;19939;-79
2021/01/15 08:44:48;;;;;;;;;;;2.40;99.90;;;;;;4870182;29;19935;-79
2021/01/15 08:47:20;;;;;;;;;;;2.50;99.90;;;;;;4834933;29;19924;-80
2021/01/15 08:49:54;;;;;;;;;;;2.50;99.90;;;;;;4863526;29;19931;-78
2021/01/15 08:52:26;;;;;;;;;;;2.50;99.90;;;;;;4881546;29;20388;-80
2021/01/15 08:54:56;;;;;;;;;;;2.50;99.90;;;;;;4878613;29;19935;-79
2021/01/15 08:57:43;;;;;;;;;;;2.50;99.90;;;;;;4883751;29;19935;-80
2021/01/15 09:00:23;;;;;;;;;;;2.60;99.90;;;;;;4869660;29;19931;-81
2021/01/15 09:02:52;;;;;;;;;;;2.60;99.90;;;;;;4863416;29;19938;-78
2021/01/15 09:05:21;;;;;;;;;;;2.70;99.90;;;;;;4879212;29;19924;-80
2021/01/15 09:07:51;;;;;;;;;;;2.80;99.90;;;;;;4850823;29;19924;-82
2021/01/15 09:10:20;;;;;;;;;;;2.80;99.90;;;;;;4868994;29;19924;-80
2021/01/15 09:12:53;;;;;;;;;;;2.80;99.90;;;;;;4850722;29;19935;-81
2021/01/15 09:15:21;;;;;;;;;;;2.80;99.90;;;;;;4881898;29;19924;-79
2021/01/15 09:17:52;;;;;;;;;;;2.70;99.90;;;;;;4881229;29;20247;-80
2021/01/15 09:20:25;;;;;;;;;;;2.70;99.90;;;;;;4880813;29;19924;-80
2021/01/15 09:22:53;;;;;;;;;;;2.70;99.90;;;;;;4866666;29;19932;-80
2021/01/15 09:25:23;;;;;;;;;;;2.70;99.90;;;;;;4867091;29;19935;-83
2021/01/15 09:27:52;;;;;;;;;;;2.60;99.90;;;;;;4849765;29;19924;-80
2021/01/15 09:30:22;;;;;;;;;;;2.60;99.90;;;;;;4850219;29;20274;-81
2021/01/15 09:32:50;;;;;;;;;;;2.50;99.90;;;;;;4885964;29;19923;-81
2021/01/15 09:35:23;;;;;;;;;;;2.60;99.90;;;;;;4885561;29;19998;-81
2021/01/15 09:37:53;;;;;;;;;;;2.60;99.90;;;;;;4861016;29;19944;-81
2021/01/15 09:40:21;;;;;;;;;;;2.50;99.90;;;;;;4872573;29;19923;-81
2021/01/15 09:43:11;;;;;;;;;;;2.40;99.90;;;;;;4888856;29;20375;-84
2021/01/15 09:45:44;;;;;;;;;;;2.40;99.90;;;;;;4878084;29;19931;-81
2021/01/15 09:48:12;;;;;;;;;;;2.40;99.90;;;;;;4847712;29;19946;-80
2021/01/15 09:50:40;;;;;;;;;;;2.30;99.90;;;;;;4873081;29;19924;-80
2021/01/15 09:53:08;;;;;;;;;;;2.40;99.90;;;;;;4874260;29;19924;-80
2021/01/15 09:55:41;;;;;;;;;;;2.40;99.90;;;;;;4861135;29;19923;-80
2021/01/15 09:58:08;;;;;;;;;;;2.40;99.90;;;;;;4895093;29;19934;-81
2021/01/15 10:00:39;;;;;;;;;;;2.30;99.90;;;;;;4871240;29;19927;-81
2021/01/15 10:03:16;;;;;;;;;;;2.30;99.90;;;;;;4872800;29;19924;-81
2021/01/15 10:05:54;;;;;;;;;;;2.30;99.90;;;;;;4856643;29;20388;-80
2021/01/15 10:08:35;;;;;;;;;;;2.30;99.90;;;;;;4856575;29;20282;-80
2021/01/15 10:11:04;;;;;;;;;;;2.30;99.90;;;;;;4873234;29;19924;-82
2021/01/15 10:13:32;;;;;;;;;;;2.30;99.90;;;;;;4873954;29;20357;-82
2021/01/15 10:16:05;;;;;;;;;;;2.30;99.90;;;;;;4887361;29;19935;-80
2021/01/15 10:18:35;;;;;;;;;;;2.30;99.90;;;;;;4871775;29;19935;-80
2021/01/15 10:21:08;;;;;;;;;;;2.40;99.90;;;;;;4856403;29;19924;-78
2021/01/15 10:23:39;;;;;;;;;;;2.40;99.90;;;;;;4872344;29;20286;-78
2021/01/15 10:26:16;;;;;;;;;;;2.40;99.90;;;;;;4873993;29;19935;-80
2021/01/15 10:28:43;;;;;;;;;;;2.30;99.90;;;;;;4887779;29;19924;-78
2021/01/15 10:31:17;;;;;;;;;;;2.30;99.90;;;;;;4885788;29;19928;-80
2021/01/15 10:33:45;;;;;;;;;;;2.30;99.90;;;;;;4891818;29;19924;-80
2021/01/15 10:36:14;;;;;;;;;;;2.30;99.90;;;;;;4871162;29;19924;-79
2021/01/15 10:38:43;;;;;;;;;;;2.30;99.90;;;;;;4870147;29;20366;-78
2021/01/15 10:41:13;;;;;;;;;;;2.30;99.90;;;;;;4867828;29;19928;-81
2021/01/15 10:43:43;;;;;;;;;;;2.30;99.90;;;;;;4883791;29;19924;-80
2021/01/15 10:46:15;;;;;;;;;;;2.30;99.90;;;;;;4853184;29;19924;-80
2021/01/15 10:49:08;;;;;;;;;;;;;;;;;;;;;
2021/01/15 10:51:41;;;;;;;;;;;2.40;99.90;;;;;;4866266;29;19964;-77
2021/01/15 10:54:11;;;;;;;;;;;2.50;99.90;;;;;;4874184;29;19935;-80
2021/01/15 10:56:39;;;;;;;;;;;2.50;99.90;;;;;;4879786;29;19923;-81
2021/01/15 10:59:06;;;;;;;;;;;2.50;99.90;;;;;;4885514;29;19927;-81
2021/01/15 11:01:37;;;;;;;;;;;2.60;99.90;;;;;;4884991;29;19935;-79
2021/01/15 11:04:19;;;;;;;;;;;2.50;99.90;;;;;;4855334;29;19923;-81
2021/01/15 11:06:48;;;;;;;;;;;2.50;99.90;;;;;;4856119;29;19928;-80
2021/01/15 11:09:19;;;;;;;;;;;2.50;99.90;;;;;;4856715;29;19923;-81
2021/01/15 11:11:47;;;;;;;;;;;2.40;99.90;;;;;;4866014;29;20421;-81
2021/01/15 11:14:14;;;;;;;;;;;2.40;99.90;;;;;;4883852;29;19924;-79
2021/01/15 11:16:44;;;;;;;;;;;2.30;99.90;;;;;;4885204;29;19935;-81
2021/01/15 11:19:12;;;;;;;;;;;2.30;99.90;;;;;;4855399;29;19923;-80
2021/01/15 11:21:42;;;;;;;;;;;2.30;99.90;;;;;;4865903;29;20342;-81
2021/01/15 11:24:15;;;;;;;;;;;2.30;99.90;;;;;;4887125;29;19932;-82
2021/01/15 11:26:43;;;;;;;;;;;2.30;99.90;;;;;;4854933;29;19924;-80
2021/01/15 11:29:14;;;;;;;;;;;2.20;99.90;;;;;;4871229;29;19927;-82
2021/01/15 11:31:43;;;;;;;;;;;2.20;99.90;;;;;;4888277;29;19923;-80
2021/01/15 11:34:16;;;;;;;;;;;2.20;99.90;;;;;;4871186;29;19931;-81
2021/01/15 11:36:53;;;;;;;;;;;2.20;99.90;;;;;;4882808;29;19924;-82
2021/01/15 11:39:21;;;;;;;;;;;2.20;99.90;;;;;;4873317;29;19924;-80
2021/01/15 11:41:54;;;;;;;;;;;2.20;99.90;;;;;;4856530;29;19934;-81
2021/01/15 11:44:25;;;;;;;;;;;2.30;99.90;;;;;;4856728;29;19924;-80
2021/01/15 11:46:54;;;;;;;;;;;2.40;99.90;;;;;;4871957;29;19935;-79
2021/01/15 11:49:23;;;;;;;;;;;2.50;99.90;;;;;;4886029;29;19923;-80
2021/01/15 11:51:53;;;;;;;;;;;2.40;99.90;;;;;;4868777;29;20010;-80
2021/01/15 11:54:27;;;;;;;;;;;2.40;99.90;;;;;;4865403;29;19925;-80
2021/01/15 12:00:20;;;;;;;;;;;2.40;99.90;;;;;;4841895;29;19931;-81
2021/01/15 12:02:52;;;;;;;;;;;2.30;99.90;;;;;;4849880;29;19928;-81
2021/01/15 12:05:49;;;;;;;;;;;2.40;99.90;;;;;;4854120;29;19983;-81
2021/01/15 12:08:32;;;;;;;;;;;2.40;99.90;;;;;;4874594;29;19927;-80
2021/01/15 12:11:25;;;;;;;;;;;2.50;99.90;;;;;;4859211;29;19934;-82
2021/01/15 12:13:56;;;;;;;;;;;2.50;99.90;;;;;;4869664;29;19931;-81
2021/01/15 12:16:27;;;;;;;;;;;2.60;99.90;;;;;;4860633;29;19925;-83
2021/01/15 12:19:05;;;;;;;;;;;2.60;99.90;;;;;;4878010;29;19914;-83
2021/01/15 12:22:07;;;;;;;;;;;2.60;99.90;;;;;;4854632;29;20293;-82
2021/01/15 12:24:39;;;;;;;;;;;2.50;99.90;;;;;;4895853;29;19924;-81
2021/01/15 12:27:19;;;;;;;;;;;2.50;99.90;;;;;;4969997;23;19923;-79
2021/01/15 12:29:58;;;;;;;;;;;2.50;99.90;;;;;;4918597;29;19923;-81
2021/01/15 12:32:26;;;;;;;;;;;2.40;99.90;;;;;;4906847;29;19923;-80
2021/01/15 12:34:57;;;;;;;;;;;2.30;99.90;;;;;;4915821;29;19923;-79
2021/01/15 12:40:19;;;;;;;;;;;2.20;99.90;;;;;;4915376;29;19927;-84
2021/01/15 12:42:52;;;;;;;;;;;2.30;99.90;;;;;;4900819;29;19923;-80
2021/01/15 12:45:31;;;;;;;;;;;2.20;99.90;;;;;;4915292;29;19926;-81
2021/01/15 12:48:08;;;;;;;;;;;2.20;99.90;;;;;;4904924;29;19934;-80
2021/01/15 12:50:36;;;;;;;;;;;2.30;99.90;;;;;;5104071;23;19931;-80
2021/01/15 12:53:06;;;;;;;;;;;2.30;99.90;;;;;;4924327;29;19907;-80
2021/01/15 12:55:34;;;;;;;;;;;2.30;99.90;;;;;;4923197;29;19923;-79
2021/01/15 12:58:27;;;;;;;;;;;2.30;99.90;;;;;;4918715;29;19933;-80
2021/01/15 13:01:06;;;;;;;;;;;2.30;99.90;;;;;;4919878;29;19923;-81
2021/01/15 13:06:38;;;;;;;;;;;2.40;99.90;;;;;;4864409;29;19934;-81
2021/01/15 13:09:09;;;;;;;;;;;2.40;99.90;;;;;;4865258;29;19935;-81
2021/01/15 13:11:54;;;;;;;;;;;2.40;99.90;;;;;;4881666;29;19908;-83
2021/01/15 13:14:24;;;;;;;;;;;2.30;99.90;;;;;;4866848;29;19916;-80
2021/01/15 13:20:00;;;;;;;;;;;2.30;99.90;;;;;;4937744;29;19933;-79
2021/01/15 13:22:32;;;;;;;;;;;2.30;99.90;;;;;;4937215;29;19933;-82
2021/01/15 13:25:07;;;;;;;;;;;2.30;99.90;;;;;;4906207;29;19930;-81
2021/01/15 13:27:49;;;;;;;;;;;2.30;99.90;;;;;;4920374;29;19931;-81
2021/01/15 13:30:20;;;;;;;;;;;2.10;99.90;;;;;;5095722;23;19913;-79
2021/01/15 13:32:50;;;;;;;;;;;2.10;99.90;;;;;;4935838;29;19919;-81
2021/01/15 13:35:25;;;;;;;;;;;2.10;99.90;;;;;;4906191;29;19907;-83
2021/01/15 13:37:54;;;;;;;;;;;2.00;99.90;;;;;;4890837;29;19933;-82
2021/01/15 13:40:25;;;;;;;;;;;2.10;99.90;;;;;;4921197;29;19929;-82
2021/01/15 13:45:48;;;;;;;;;;;2.10;99.90;;;;;;5042287;23;19945;-82
2021/01/15 13:48:16;;;;;;;;;;;2.10;99.90;;;;;;4922509;29;19926;-81
2021/01/15 13:50:54;;;;;;;;;;;2.00;99.90;;;;;;4917813;29;19965;-85
2021/01/15 13:53:33;;;;;;;;;;;2.10;99.90;;;;;;4923965;29;19933;-81
2021/01/15 13:56:05;;;;;;;;;;;2.00;99.90;;;;;;4921118;29;19992;-81
2021/01/15 13:58:40;;;;;;;;;;;1.90;99.90;;;;;;5188084;23;19934;-81
2021/01/15 14:04:19;;;;;;;;;;;2.00;99.90;;;;;;5047574;23;19913;-80
2021/01/15 14:07:01;;;;;;;;;;;1.90;99.90;;;;;;4925497;29;19933;-82
2021/01/15 14:09:32;;;;;;;;;;;1.90;99.90;;;;;;4940886;29;20261;-83
2021/01/15 14:12:03;;;;;;;;;;;1.90;99.90;;;;;;4942244;29;19906;-83
2021/01/15 14:14:33;;;;;;;;;;;2.00;99.90;;;;;;4950130;23;19923;-82
2021/01/15 14:17:15;;;;;;;;;;;1.90;99.90;;;;;;4972253;23;19919;-82
2021/01/15 14:19:45;;;;;;;;;;;1.90;99.90;;;;;;4916444;29;19930;-81
2021/01/15 14:25:17;;;;;;;;;;;1.90;99.90;;;;;;4900445;29;19919;-81
2021/01/15 14:27:47;;;;;;;;;;;1.80;99.90;;;;;;4912739;29;19929;-79
2021/01/15 14:30:18;;;;;;;;;;;1.70;99.90;;;;;;4911261;29;19923;-80
2021/01/15 14:32:46;;;;;;;;;;;1.80;99.90;;;;;;4930938;29;19943;-79
2021/01/15 14:35:14;;;;;;;;;;;1.70;99.90;;;;;;4900454;29;19931;-81
2021/01/15 14:37:45;;;;;;;;;;;1.70;99.90;;;;;;4930728;29;19934;-82
2021/01/15 14:40:13;;;;;;;;;;;1.60;99.90;;;;;;4932230;29;19934;-81
2021/01/15 14:42:46;;;;;;;;;;;1.60;99.90;;;;;;4930685;29;19923;-81
2021/01/15 14:45:16;;;;;;;;;;;1.50;99.90;;;;;;4899672;29;19934;-81
2021/01/15 14:47:44;;;;;;;;;;;1.40;99.90;;;;;;4897120;29;19923;-80
2021/01/15 14:50:27;;;;;;;;;;;1.40;99.90;;;;;;4895161;29;19934;-81
2021/01/15 14:52:57;;;;;;;;;;;1.40;99.90;;;;;;4912010;29;19923;-82
2021/01/15 14:55:29;;;;;;;;;;;1.40;99.90;;;;;;4893926;29;19938;-80
2021/01/15 14:57:59;;;;;;;;;;;1.40;99.90;;;;;;4882209;29;19927;-80
2021/01/15 15:00:29;;;;;;;;;;;1.30;99.90;;;;;;4909218;29;19930;-80
2021/01/15 15:03:02;;;;;;;;;;;1.40;99.90;;;;;;4914237;29;20349;-78
2021/01/15 15:05:30;;;;;;;;;;;1.30;99.90;;;;;;4936236;29;19907;-79
2021/01/15 15:07:59;;;;;;;;;;;1.30;99.90;;;;;;4908729;29;19919;-80
2021/01/15 15:10:27;;;;;;;;;;;1.30;99.90;;;;;;4924325;29;19934;-80
2021/01/15 15:12:57;;;;;;;;;;;1.20;99.90;;;;;;4938180;29;19934;-78
2021/01/15 15:15:25;;;;;;;;;;;1.20;99.90;;;;;;4907717;29;19922;-76
2021/01/15 15:17:55;;;;;;;;;;;1.20;99.90;;;;;;4911969;29;19922;-79
2021/01/15 15:20:23;;;;;;;;;;;1.20;99.90;;;;;;4911648;29;19923;-81
2021/01/15 15:22:51;;;;;;;;;;;1.30;99.90;;;;;;4928309;29;19923;-79